sensor_id;sensor_type;location;lat;lon;timestamp;temperature;humidity
70151;DHT22;57517;43.562;19.540;2022-11-20T00:01:30;282.00;2278.40
70151;DHT22;57517;43.562;19.540;2022-11-20T00:03:57;282.10;2278.40
70151;DHT22;57517;43.562;19.540;2022-11-20T00:06:23;282.20;2278.40
70151;DHT22;57517;43.562;19.540;2022-11-20T00:08:50;282.30;2278.40
70151;DHT22;57517;43.562;19.540;2022-11-20T00:11:21;282.40;2278.40
70151;DHT22;57517;43.562;19.540;2022-11-20T00:13:50;282.30;2278.40
70151;DHT22;57517;43.562;19.540;2022-11-20T00:16:22;282.20;2278.40
70151;DHT22;57517;43.562;19.540;2022-11-20T00:18:48;282.00;2278.40
70151;DHT22;57517;43.562;19.540;2022-11-20T00:21:19;282.00;2278.40
70151;DHT22;57517;43.562;19.540;2022-11-20T00:23:45;282.00;2278.40
70151;DHT22;57517;43.562;19.540;2022-11-20T00:26:13;282.10;2278.40
70151;DHT22;57517;43.562;19.540;2022-11-20T00:28:41;282.10;2278.40
70151;DHT22;57517;43.562;19.540;2022-11-20T00:31:16;282.10;2278.40
70151;DHT22;57517;43.562;19.540;2022-11-20T00:33:43;282.20;2278.40
70151;DHT22;57517;43.562;19.540;2022-11-20T00:36:14;282.00;2278.40
70151;DHT22;57517;43.562;19.540;2022-11-20T00:38:41;281.90;2278.40
70151;DHT22;57517;43.562;19.540;2022-11-20T00:41:09;281.90;2278.40
70151;DHT22;57517;43.562;19.540;2022-11-20T00:43:36;281.80;2278.40
70151;DHT22;57517;43.562;19.540;2022-11-20T00:46:10;282.00;2278.40
70151;DHT22;57517;43.562;19.540;2022-11-20T00:48:37;282.00;2278.40
70151;DHT22;57517;43.562;19.540;2022-11-20T00:51:03;281.90;2278.40
70151;DHT22;57517;43.562;19.540;2022-11-20T00:53:30;281.90;2278.40
70151;DHT22;57517;43.562;19.540;2022-11-20T00:56:01;282.00;2278.40
70151;DHT22;57517;43.562;19.540;2022-11-20T00:58:35;282.00;2278.40
70151;DHT22;57517;43.562;19.540;2022-11-20T01:01:07;282.10;2278.40
70151;DHT22;57517;43.562;19.540;2022-11-20T01:03:34;282.20;2278.40
70151;DHT22;57517;43.562;19.540;2022-11-20T01:06:09;282.30;2278.40
70151;DHT22;57517;43.562;19.540;2022-11-20T01:08:36;282.30;2278.40
70151;DHT22;57517;43.562;19.540;2022-11-20T01:11:26;282.30;2278.40
70151;DHT22;57517;43.562;19.540;2022-11-20T01:13:50;282.30;2278.40
70151;DHT22;57517;43.562;19.540;2022-11-20T01:16:22;282.20;2278.40
70151;DHT22;57517;43.562;19.540;2022-11-20T01:18:51;282.20;2278.40
70151;DHT22;57517;43.562;19.540;2022-11-20T01:21:20;282.20;2278.40
70151;DHT22;57517;43.562;19.540;2022-11-20T01:23:46;282.20;2278.40
70151;DHT22;57517;43.562;19.540;2022-11-20T01:26:15;282.30;2278.40
70151;DHT22;57517;43.562;19.540;2022-11-20T01:28:42;282.40;2278.40
70151;DHT22;57517;43.562;19.540;2022-11-20T01:31:17;282.50;2278.40
70151;DHT22;57517;43.562;19.540;2022-11-20T01:33:44;282.50;2278.40
70151;DHT22;57517;43.562;19.540;2022-11-20T01:36:12;282.40;2278.40
70151;DHT22;57517;43.562;19.540;2022-11-20T01:38:38;282.40;2278.40
70151;DHT22;57517;43.562;19.540;2022-11-20T01:41:04;282.40;2278.40
70151;DHT22;57517;43.562;19.540;2022-11-20T01:43:31;282.40;2278.40
70151;DHT22;57517;43.562;19.540;2022-11-20T01:46:00;282.40;2278.40
70151;DHT22;57517;43.562;19.540;2022-11-20T01:48:39;282.40;2278.40
70151;DHT22;57517;43.562;19.540;2022-11-20T01:51:19;282.40;2278.40
70151;DHT22;57517;43.562;19.540;2022-11-20T01:53:46;282.40;2278.40
70151;DHT22;57517;43.562;19.540;2022-11-20T01:56:14;282.50;2278.40
70151;DHT22;57517;43.562;19.540;2022-11-20T01:58:44;282.50;2278.40
70151;DHT22;57517;43.562;19.540;2022-11-20T02:01:13;282.50;2278.40
70151;DHT22;57517;43.562;19.540;2022-11-20T02:03:40;282.50;2278.40
70151;DHT22;57517;43.562;19.540;2022-11-20T02:06:15;307.20;2304.00
70151;DHT22;57517;43.562;19.540;2022-11-20T02:08:42;282.50;2278.40
70151;DHT22;57517;43.562;19.540;2022-11-20T02:11:08;282.30;2278.40
70151;DHT22;57517;43.562;19.540;2022-11-20T02:13:34;282.30;2278.40
70151;DHT22;57517;43.562;19.540;2022-11-20T02:16:12;282.30;2278.40
70151;DHT22;57517;43.562;19.540;2022-11-20T02:18:40;282.40;2278.40
70151;DHT22;57517;43.562;19.540;2022-11-20T02:24:20;282.20;2278.40
70151;DHT22;57517;43.562;19.540;2022-11-20T02:26:53;282.30;2278.40
70151;DHT22;57517;43.562;19.540;2022-11-20T02:29:26;282.30;2278.40
70151;DHT22;57517;43.562;19.540;2022-11-20T02:31:55;282.30;2278.40
70151;DHT22;57517;43.562;19.540;2022-11-20T02:34:22;282.20;2278.40
70151;DHT22;57517;43.562;19.540;2022-11-20T02:36:49;282.20;2278.40
70151;DHT22;57517;43.562;19.540;2022-11-20T02:39:16;282.20;2278.40
70151;DHT22;57517;43.562;19.540;2022-11-20T02:41:42;282.10;2278.40
70151;DHT22;57517;43.562;19.540;2022-11-20T02:44:08;282.00;2278.40
70151;DHT22;57517;43.562;19.540;2022-11-20T02:46:34;282.00;2278.40
70151;DHT22;57517;43.562;19.540;2022-11-20T02:49:04;281.90;2278.40
70151;DHT22;57517;43.562;19.540;2022-11-20T02:51:31;282.00;2278.40
70151;DHT22;57517;43.562;19.540;2022-11-20T02:53:58;281.80;2278.40
70151;DHT22;57517;43.562;19.540;2022-11-20T02:56:24;281.60;2278.40
70151;DHT22;57517;43.562;19.540;2022-11-20T02:58:50;281.60;2278.40
70151;DHT22;57517;43.562;19.540;2022-11-20T03:01:16;281.80;2278.40
70151;DHT22;57517;43.562;19.540;2022-11-20T03:03:42;281.80;2278.40
70151;DHT22;57517;43.562;19.540;2022-11-20T03:06:08;281.80;2278.40
70151;DHT22;57517;43.562;19.540;2022-11-20T03:08:34;281.70;2278.40
70151;DHT22;57517;43.562;19.540;2022-11-20T03:11:05;281.70;2278.40
70151;DHT22;57517;43.562;19.540;2022-11-20T03:13:31;281.70;2278.40
70151;DHT22;57517;43.562;19.540;2022-11-20T03:15:57;281.60;2278.40
70151;DHT22;57517;43.562;19.540;2022-11-20T03:18:23;281.70;2278.40
70151;DHT22;57517;43.562;19.540;2022-11-20T03:20:49;281.80;2278.40
70151;DHT22;57517;43.562;19.540;2022-11-20T03:23:14;282.00;2278.40
70151;DHT22;57517;43.562;19.540;2022-11-20T03:25:40;282.00;2278.40
70151;DHT22;57517;43.562;19.540;2022-11-20T03:28:06;281.80;2278.40
70151;DHT22;57517;43.562;19.540;2022-11-20T03:30:32;281.60;2278.40
70151;DHT22;57517;43.562;19.540;2022-11-20T03:32:58;256.80;2252.80
70151;DHT22;57517;43.562;19.540;2022-11-20T03:35:23;256.90;2252.80
70151;DHT22;57517;43.562;19.540;2022-11-20T03:37:49;281.70;2278.40
70151;DHT22;57517;43.562;19.540;2022-11-20T03:40:15;281.70;2278.40
70151;DHT22;57517;43.562;19.540;2022-11-20T03:42:41;281.80;2278.40
70151;DHT22;57517;43.562;19.540;2022-11-20T03:45:14;281.80;2278.40
70151;DHT22;57517;43.562;19.540;2022-11-20T03:47:40;281.80;2278.40
70151;DHT22;57517;43.562;19.540;2022-11-20T03:50:07;281.80;2278.40
70151;DHT22;57517;43.562;19.540;2022-11-20T03:52:33;281.80;2278.40
70151;DHT22;57517;43.562;19.540;2022-11-20T03:54:59;281.90;2278.40
70151;DHT22;57517;43.562;19.540;2022-11-20T03:57:24;281.80;2278.40
70151;DHT22;57517;43.562;19.540;2022-11-20T03:59:50;281.80;2278.40
70151;DHT22;57517;43.562;19.540;2022-11-20T04:02:16;281.60;2278.40
70151;DHT22;57517;43.562;19.540;2022-11-20T04:04:42;256.90;2252.80
70151;DHT22;57517;43.562;19.540;2022-11-20T04:07:08;256.90;2252.80
70151;DHT22;57517;43.562;19.540;2022-11-20T04:09:34;256.90;2252.80
70151;DHT22;57517;43.562;19.540;2022-11-20T04:11:59;256.90;2252.80
70151;DHT22;57517;43.562;19.540;2022-11-20T04:14:25;281.60;2278.40
70151;DHT22;57517;43.562;19.540;2022-11-20T04:16:51;256.90;2252.80
70151;DHT22;57517;43.562;19.540;2022-11-20T04:19:17;256.80;2252.80
70151;DHT22;57517;43.562;19.540;2022-11-20T04:21:44;256.70;2252.80
70151;DHT22;57517;43.562;19.540;2022-11-20T04:24:10;256.70;2252.80
70151;DHT22;57517;43.562;19.540;2022-11-20T04:26:37;256.70;2252.80
70151;DHT22;57517;43.562;19.540;2022-11-20T04:29:03;256.90;2252.80
70151;DHT22;57517;43.562;19.540;2022-11-20T04:31:32;256.90;2252.80
70151;DHT22;57517;43.562;19.540;2022-11-20T04:34:04;281.70;2278.40
70151;DHT22;57517;43.562;19.540;2022-11-20T04:36:30;281.60;2278.40
70151;DHT22;57517;43.562;19.540;2022-11-20T04:39:02;256.90;2252.80
70151;DHT22;57517;43.562;19.540;2022-11-20T04:41:32;256.80;2252.80
70151;DHT22;57517;43.562;19.540;2022-11-20T04:44:00;256.90;2252.80
70151;DHT22;57517;43.562;19.540;2022-11-20T04:46:30;256.70;2252.80
70151;DHT22;57517;43.562;19.540;2022-11-20T04:48:56;256.80;2252.80
70151;DHT22;57517;43.562;19.540;2022-11-20T04:51:22;281.60;2278.40
70151;DHT22;57517;43.562;19.540;2022-11-20T04:53:48;281.60;2278.40
70151;DHT22;57517;43.562;19.540;2022-11-20T04:56:14;281.60;2278.40
70151;DHT22;57517;43.562;19.540;2022-11-20T04:58:40;256.90;2252.80
70151;DHT22;57517;43.562;19.540;2022-11-20T05:01:12;256.90;2252.80
70151;DHT22;57517;43.562;19.540;2022-11-20T05:03:39;256.90;2252.80
70151;DHT22;57517;43.562;19.540;2022-11-20T05:06:06;281.60;2278.40
70151;DHT22;57517;43.562;19.540;2022-11-20T05:08:33;281.60;2278.40
70151;DHT22;57517;43.562;19.540;2022-11-20T05:11:07;256.90;2252.80
70151;DHT22;57517;43.562;19.540;2022-11-20T05:13:33;256.90;2252.80
70151;DHT22;57517;43.562;19.540;2022-11-20T05:16:10;256.70;2252.80
70151;DHT22;57517;43.562;19.540;2022-11-20T05:18:37;256.70;2252.80
70151;DHT22;57517;43.562;19.540;2022-11-20T05:21:03;256.60;2252.80
70151;DHT22;57517;43.562;19.540;2022-11-20T05:23:31;256.60;2252.80
70151;DHT22;57517;43.562;19.540;2022-11-20T05:25:57;256.60;2252.80
70151;DHT22;57517;43.562;19.540;2022-11-20T05:28:24;256.60;2252.80
70151;DHT22;57517;43.562;19.540;2022-11-20T05:30:50;256.50;2252.80
70151;DHT22;57517;43.562;19.540;2022-11-20T05:33:17;256.50;2252.80
70151;DHT22;57517;43.562;19.540;2022-11-20T05:35:43;256.40;2252.80
70151;DHT22;57517;43.562;19.540;2022-11-20T05:38:09;256.60;2252.80
70151;DHT22;57517;43.562;19.540;2022-11-20T05:40:35;256.70;2252.80
70151;DHT22;57517;43.562;19.540;2022-11-20T05:43:01;256.60;2252.80
70151;DHT22;57517;43.562;19.540;2022-11-20T05:45:27;256.80;2252.80
70151;DHT22;57517;43.562;19.540;2022-11-20T05:47:53;256.80;2252.80
70151;DHT22;57517;43.562;19.540;2022-11-20T05:50:20;256.80;2252.80
70151;DHT22;57517;43.562;19.540;2022-11-20T05:52:46;256.80;2252.80
70151;DHT22;57517;43.562;19.540;2022-11-20T05:55:11;256.90;2252.80
70151;DHT22;57517;43.562;19.540;2022-11-20T05:57:37;281.60;2278.40
70151;DHT22;57517;43.562;19.540;2022-11-20T06:00:03;281.60;2278.40
70151;DHT22;57517;43.562;19.540;2022-11-20T06:02:29;256.80;2252.80
70151;DHT22;57517;43.562;19.540;2022-11-20T06:04:55;256.90;2252.80
70151;DHT22;57517;43.562;19.540;2022-11-20T06:07:21;256.80;2252.80
70151;DHT22;57517;43.562;19.540;2022-11-20T06:09:47;256.80;2252.80
70151;DHT22;57517;43.562;19.540;2022-11-20T06:12:12;256.90;2252.80
70151;DHT22;57517;43.562;19.540;2022-11-20T06:14:38;256.80;2252.80
70151;DHT22;57517;43.562;19.540;2022-11-20T06:17:04;281.60;2278.40
70151;DHT22;57517;43.562;19.540;2022-11-20T06:19:30;281.60;2278.40
70151;DHT22;57517;43.562;19.540;2022-11-20T06:21:55;281.70;2278.40
70151;DHT22;57517;43.562;19.540;2022-11-20T06:24:21;281.60;2278.40
70151;DHT22;57517;43.562;19.540;2022-11-20T06:26:48;281.60;2278.40
70151;DHT22;57517;43.562;19.540;2022-11-20T06:29:13;256.90;2252.80
70151;DHT22;57517;43.562;19.540;2022-11-20T06:31:39;281.60;2278.40
70151;DHT22;57517;43.562;19.540;2022-11-20T06:34:07;281.60;2278.40
70151;DHT22;57517;43.562;19.540;2022-11-20T06:36:34;281.60;2278.40
70151;DHT22;57517;43.562;19.540;2022-11-20T06:39:00;256.90;2252.80
70151;DHT22;57517;43.562;19.540;2022-11-20T06:41:26;256.90;2252.80
70151;DHT22;57517;43.562;19.540;2022-11-20T06:43:53;256.90;2252.80
70151;DHT22;57517;43.562;19.540;2022-11-20T06:46:19;281.60;2278.40
70151;DHT22;57517;43.562;19.540;2022-11-20T06:48:46;281.60;2278.40
70151;DHT22;57517;43.562;19.540;2022-11-20T06:51:12;281.80;2278.40
70151;DHT22;57517;43.562;19.540;2022-11-20T06:53:38;281.80;2278.40
70151;DHT22;57517;43.562;19.540;2022-11-20T06:56:04;281.80;2278.40
70151;DHT22;57517;43.562;19.540;2022-11-20T06:58:31;281.90;2278.40
70151;DHT22;57517;43.562;19.540;2022-11-20T07:01:11;281.80;2278.40
70151;DHT22;57517;43.562;19.540;2022-11-20T07:03:38;281.70;2278.40
70151;DHT22;57517;43.562;19.540;2022-11-20T07:06:05;281.60;2278.40
70151;DHT22;57517;43.562;19.540;2022-11-20T07:08:31;256.90;2252.80
70151;DHT22;57517;43.562;19.540;2022-11-20T07:11:01;256.90;2252.80
70151;DHT22;57517;43.562;19.540;2022-11-20T07:13:28;281.70;2278.40
70151;DHT22;57517;43.562;19.540;2022-11-20T07:15:54;281.60;2278.40
70151;DHT22;57517;43.562;19.540;2022-11-20T07:18:20;281.70;2278.40
70151;DHT22;57517;43.562;19.540;2022-11-20T07:20:46;281.80;2278.40
70151;DHT22;57517;43.562;19.540;2022-11-20T07:23:12;281.80;2278.40
70151;DHT22;57517;43.562;19.540;2022-11-20T07:25:38;281.80;2278.40
70151;DHT22;57517;43.562;19.540;2022-11-20T07:28:03;281.80;2278.40
70151;DHT22;57517;43.562;19.540;2022-11-20T07:30:30;281.90;2278.40
70151;DHT22;57517;43.562;19.540;2022-11-20T07:32:56;282.00;2278.40
70151;DHT22;57517;43.562;19.540;2022-11-20T07:35:23;281.90;2278.40
70151;DHT22;57517;43.562;19.540;2022-11-20T07:37:49;281.90;2278.40
70151;DHT22;57517;43.562;19.540;2022-11-20T07:40:16;281.90;2278.40
70151;DHT22;57517;43.562;19.540;2022-11-20T07:42:52;282.00;2278.40
70151;DHT22;57517;43.562;19.540;2022-11-20T07:45:20;281.90;2278.40
70151;DHT22;57517;43.562;19.540;2022-11-20T07:47:46;282.00;2278.40
70151;DHT22;57517;43.562;19.540;2022-11-20T07:50:12;282.00;2278.40
70151;DHT22;57517;43.562;19.540;2022-11-20T07:52:39;282.10;2278.40
70151;DHT22;57517;43.562;19.540;2022-11-20T07:55:06;281.90;2278.40
70151;DHT22;57517;43.562;19.540;2022-11-20T07:57:32;282.00;2278.40
70151;DHT22;57517;43.562;19.540;2022-11-20T07:59:58;282.00;2278.40
70151;DHT22;57517;43.562;19.540;2022-11-20T08:02:24;281.80;2278.40
70151;DHT22;57517;43.562;19.540;2022-11-20T08:04:50;281.80;2278.40
70151;DHT22;57517;43.562;19.540;2022-11-20T08:07:16;281.70;2278.40
70151;DHT22;57517;43.562;19.540;2022-11-20T08:09:41;281.60;2278.40
70151;DHT22;57517;43.562;19.540;2022-11-20T08:12:08;281.80;2278.40
70151;DHT22;57517;43.562;19.540;2022-11-20T08:14:52;281.90;2278.40
70151;DHT22;57517;43.562;19.540;2022-11-20T08:17:18;282.00;2278.40
70151;DHT22;57517;43.562;19.540;2022-11-20T08:19:44;282.00;2278.40
70151;DHT22;57517;43.562;19.540;2022-11-20T08:22:09;282.00;2278.40
70151;DHT22;57517;43.562;19.540;2022-11-20T08:24:35;282.10;2278.40
70151;DHT22;57517;43.562;19.540;2022-11-20T08:27:01;282.20;2278.40
70151;DHT22;57517;43.562;19.540;2022-11-20T08:29:27;282.30;2278.40
70151;DHT22;57517;43.562;19.540;2022-11-20T08:31:53;282.20;2278.40
70151;DHT22;57517;43.562;19.540;2022-11-20T08:34:19;282.30;2278.40
70151;DHT22;57517;43.562;19.540;2022-11-20T08:36:44;282.40;2278.40
70151;DHT22;57517;43.562;19.540;2022-11-20T08:39:14;282.50;2278.40
70151;DHT22;57517;43.562;19.540;2022-11-20T08:41:40;282.50;2278.40
70151;DHT22;57517;43.562;19.540;2022-11-20T08:44:07;307.30;2304.00
70151;DHT22;57517;43.562;19.540;2022-11-20T08:46:35;307.30;2304.00
70151;DHT22;57517;43.562;19.540;2022-11-20T08:49:03;307.40;2304.00
70151;DHT22;57517;43.562;19.540;2022-11-20T08:51:29;307.20;2304.00
70151;DHT22;57517;43.562;19.540;2022-11-20T08:53:55;307.20;2304.00
70151;DHT22;57517;43.562;19.540;2022-11-20T08:56:21;282.50;2278.40
70151;DHT22;57517;43.562;19.540;2022-11-20T08:58:47;282.50;2278.40
70151;DHT22;57517;43.562;19.540;2022-11-20T09:01:13;282.50;2278.40
70151;DHT22;57517;43.562;19.540;2022-11-20T09:03:38;282.50;2278.40
70151;DHT22;57517;43.562;19.540;2022-11-20T09:06:06;307.30;2304.00
70151;DHT22;57517;43.562;19.540;2022-11-20T09:08:33;307.30;2304.00
70151;DHT22;57517;43.562;19.540;2022-11-20T09:10:59;307.30;2304.00
70151;DHT22;57517;43.562;19.540;2022-11-20T09:13:26;282.50;2278.40
70151;DHT22;57517;43.562;19.540;2022-11-20T09:15:57;282.50;2278.40
70151;DHT22;57517;43.562;19.540;2022-11-20T09:18:24;282.50;2278.40
70151;DHT22;57517;43.562;19.540;2022-11-20T09:20:50;307.20;2304.00
70151;DHT22;57517;43.562;19.540;2022-11-20T09:23:16;307.30;2304.00
70151;DHT22;57517;43.562;19.540;2022-11-20T09:25:42;307.30;2304.00
70151;DHT22;57517;43.562;19.540;2022-11-20T09:28:09;307.50;2304.00
70151;DHT22;57517;43.562;19.540;2022-11-20T09:30:35;307.50;2304.00
70151;DHT22;57517;43.562;19.540;2022-11-20T09:33:01;307.50;2304.00
70151;DHT22;57517;43.562;19.540;2022-11-20T09:35:29;307.40;2304.00
70151;DHT22;57517;43.562;19.540;2022-11-20T09:37:54;307.60;2304.00
70151;DHT22;57517;43.562;19.540;2022-11-20T09:40:26;307.70;2304.00
70151;DHT22;57517;43.562;19.540;2022-11-20T09:51:23;333.00;2329.60
70151;DHT22;57517;43.562;19.540;2022-11-20T09:56:34;333.00;2329.60
70151;DHT22;57517;43.562;19.540;2022-11-20T09:59:05;332.80;2329.60
70151;DHT22;57517;43.562;19.540;2022-11-20T10:01:36;332.80;2329.60
70151;DHT22;57517;43.562;19.540;2022-11-20T10:04:15;332.80;2329.60
70151;DHT22;57517;43.562;19.540;2022-11-20T10:09:25;333.10;2329.60
70151;DHT22;57517;43.562;19.540;2022-11-20T10:23:18;358.50;2329.60
70151;DHT22;57517;43.562;19.540;2022-11-20T10:26:03;358.50;2329.60
70151;DHT22;57517;43.562;19.540;2022-11-20T10:28:48;358.50;2329.60
70151;DHT22;57517;43.562;19.540;2022-11-20T10:33:58;358.50;2329.60
70151;DHT22;57517;43.562;19.540;2022-11-20T10:36:33;358.70;2329.60
70151;DHT22;57517;43.562;19.540;2022-11-20T10:39:06;358.80;2329.60
70151;DHT22;57517;43.562;19.540;2022-11-20T10:41:41;358.80;2329.60
70151;DHT22;57517;43.562;19.540;2022-11-20T10:44:20;359.20;2329.60
70151;DHT22;57517;43.562;19.540;2022-11-20T10:47:25;359.30;2329.60
70151;DHT22;57517;43.562;19.540;2022-11-20T10:49:54;384.20;2329.60
70151;DHT22;57517;43.562;19.540;2022-11-20T10:52:24;384.10;2329.60
70151;DHT22;57517;43.562;19.540;2022-11-20T10:55:11;384.10;2329.60
70151;DHT22;57517;43.562;19.540;2022-11-20T10:58:04;359.20;2329.60
70151;DHT22;57517;43.562;19.540;2022-11-20T11:00:34;359.30;2329.60
70151;DHT22;57517;43.562;19.540;2022-11-20T11:02:59;359.30;2329.60
70151;DHT22;57517;43.562;19.540;2022-11-20T11:05:43;359.20;2329.60
70151;DHT22;57517;43.562;19.540;2022-11-20T11:08:14;359.20;2329.60
70151;DHT22;57517;43.562;19.540;2022-11-20T11:11:21;359.20;2329.60
70151;DHT22;57517;43.562;19.540;2022-11-20T11:13:47;359.10;2329.60
70151;DHT22;57517;43.562;19.540;2022-11-20T11:16:25;359.20;2329.60
70151;DHT22;57517;43.562;19.540;2022-11-20T11:18:51;359.10;2329.60
70151;DHT22;57517;43.562;19.540;2022-11-20T11:21:24;358.90;2329.60
70151;DHT22;57517;43.562;19.540;2022-11-20T11:24:01;358.70;2329.60
70151;DHT22;57517;43.562;19.540;2022-11-20T11:26:28;358.60;2329.60
70151;DHT22;57517;43.562;19.540;2022-11-20T11:29:02;358.80;2329.60
70151;DHT22;57517;43.562;19.540;2022-11-20T11:31:33;358.80;2329.60
70151;DHT22;57517;43.562;19.540;2022-11-20T11:34:06;358.80;2329.60
70151;DHT22;57517;43.562;19.540;2022-11-20T11:36:34;358.70;2329.60
70151;DHT22;57517;43.562;19.540;2022-11-20T11:39:02;358.80;2329.60
70151;DHT22;57517;43.562;19.540;2022-11-20T11:41:32;358.70;2329.60
70151;DHT22;57517;43.562;19.540;2022-11-20T11:58:18;358.80;2329.60
70151;DHT22;57517;43.562;19.540;2022-11-20T12:00:56;358.70;2329.60
70151;DHT22;57517;43.562;19.540;2022-11-20T12:03:30;358.70;2329.60
70151;DHT22;57517;43.562;19.540;2022-11-20T12:06:04;358.60;2329.60
70151;DHT22;57517;43.562;19.540;2022-11-20T12:11:06;358.70;2329.60
70151;DHT22;57517;43.562;19.540;2022-11-20T12:13:39;358.70;2329.60
70151;DHT22;57517;43.562;19.540;2022-11-20T12:16:13;358.70;2329.60
70151;DHT22;57517;43.562;19.540;2022-11-20T12:18:41;358.70;2329.60
70151;DHT22;57517;43.562;19.540;2022-11-20T12:30:20;358.70;2329.60
70151;DHT22;57517;43.562;19.540;2022-11-20T12:33:09;358.70;2329.60
70151;DHT22;57517;43.562;19.540;2022-11-20T12:53:05;359.00;2329.60
70151;DHT22;57517;43.562;19.540;2022-11-20T12:55:42;359.00;2329.60
70151;DHT22;57517;43.562;19.540;2022-11-20T12:58:18;359.10;2329.60
70151;DHT22;57517;43.562;19.540;2022-11-20T13:01:19;359.20;2329.60
70151;DHT22;57517;43.562;19.540;2022-11-20T13:07:13;384.10;2329.60
70151;DHT22;57517;43.562;19.540;2022-11-20T13:09:46;384.20;2329.60
70151;DHT22;57517;43.562;19.540;2022-11-20T13:17:58;384.10;2329.60
70151;DHT22;57517;43.562;19.540;2022-11-20T13:20:24;384.00;2329.60
70151;DHT22;57517;43.562;19.540;2022-11-20T13:22:52;359.30;2329.60
70151;DHT22;57517;43.562;19.540;2022-11-20T13:25:23;359.20;2329.60
70151;DHT22;57517;43.562;19.540;2022-11-20T13:27:50;359.10;2329.60
70151;DHT22;57517;43.562;19.540;2022-11-20T13:30:19;358.90;2329.60
70151;DHT22;57517;43.562;19.540;2022-11-20T13:33:07;358.80;2329.60
70151;DHT22;57517;43.562;19.540;2022-11-20T13:35:55;358.80;2329.60
70151;DHT22;57517;43.562;19.540;2022-11-20T13:38:21;358.70;2329.60
70151;DHT22;57517;43.562;19.540;2022-11-20T13:40:58;358.60;2329.60
70151;DHT22;57517;43.562;19.540;2022-11-20T13:43:41;358.50;2329.60
70151;DHT22;57517;43.562;19.540;2022-11-20T13:46:09;358.40;2329.60
70151;DHT22;57517;43.562;19.540;2022-11-20T13:48:43;358.40;2329.60
70151;DHT22;57517;43.562;19.540;2022-11-20T14:02:00;333.50;2329.60
70151;DHT22;57517;43.562;19.540;2022-11-20T14:04:31;333.40;2329.60
70151;DHT22;57517;43.562;19.540;2022-11-20T14:06:58;333.40;2329.60
70151;DHT22;57517;43.562;19.540;2022-11-20T14:09:32;333.60;2329.60
70151;DHT22;57517;43.562;19.540;2022-11-20T14:11:59;333.70;2329.60
70151;DHT22;57517;43.562;19.540;2022-11-20T14:14:27;333.60;2329.60
70151;DHT22;57517;43.562;19.540;2022-11-20T14:17:05;333.40;2329.60
70151;DHT22;57517;43.562;19.540;2022-11-20T14:19:31;333.30;2329.60
70151;DHT22;57517;43.562;19.540;2022-11-20T14:22:21;333.10;2329.60
70151;DHT22;57517;43.562;19.540;2022-11-20T14:25:00;333.00;2329.60
70151;DHT22;57517;43.562;19.540;2022-11-20T14:27:27;333.00;2329.60
70151;DHT22;57517;43.562;19.540;2022-11-20T14:29:53;333.00;2329.60
70151;DHT22;57517;43.562;19.540;2022-11-20T14:32:21;332.80;2329.60
70151;DHT22;57517;43.562;19.540;2022-11-20T14:34:50;332.80;2329.60
70151;DHT22;57517;43.562;19.540;2022-11-20T14:37:23;308.10;2304.00
70151;DHT22;57517;43.562;19.540;2022-11-20T14:39:52;308.10;2304.00
70151;DHT22;57517;43.562;19.540;2022-11-20T14:42:21;307.90;2304.00
70151;DHT22;57517;43.562;19.540;2022-11-20T14:44:48;307.90;2304.00
70151;DHT22;57517;43.562;19.540;2022-11-20T14:47:23;307.80;2304.00
70151;DHT22;57517;43.562;19.540;2022-11-20T14:49:52;307.80;2304.00
70151;DHT22;57517;43.562;19.540;2022-11-20T14:52:26;307.70;2304.00
70151;DHT22;57517;43.562;19.540;2022-11-20T14:54:55;307.70;2304.00
70151;DHT22;57517;43.562;19.540;2022-11-20T14:57:22;307.60;2304.00
70151;DHT22;57517;43.562;19.540;2022-11-20T14:59:48;307.50;2304.00
70151;DHT22;57517;43.562;19.540;2022-11-20T15:02:14;307.40;2304.00
70151;DHT22;57517;43.562;19.540;2022-11-20T15:04:50;307.40;2304.00
70151;DHT22;57517;43.562;19.540;2022-11-20T15:10:11;307.30;2304.00
70151;DHT22;57517;43.562;19.540;2022-11-20T15:12:45;307.20;2304.00
70151;DHT22;57517;43.562;19.540;2022-11-20T15:15:16;282.50;2278.40
70151;DHT22;57517;43.562;19.540;2022-11-20T15:17:44;282.50;2278.40
70151;DHT22;57517;43.562;19.540;2022-11-20T15:20:15;282.50;2278.40
70151;DHT22;57517;43.562;19.540;2022-11-20T15:22:41;282.50;2278.40
70151;DHT22;57517;43.562;19.540;2022-11-20T15:25:15;282.50;2278.40
70151;DHT22;57517;43.562;19.540;2022-11-20T15:27:42;282.50;2278.40
70151;DHT22;57517;43.562;19.540;2022-11-20T15:30:16;282.50;2278.40
70151;DHT22;57517;43.562;19.540;2022-11-20T15:32:43;282.40;2278.40
70151;DHT22;57517;43.562;19.540;2022-11-20T15:35:09;282.40;2278.40
70151;DHT22;57517;43.562;19.540;2022-11-20T15:37:36;282.40;2278.40
70151;DHT22;57517;43.562;19.540;2022-11-20T15:40:03;282.40;2278.40
70151;DHT22;57517;43.562;19.540;2022-11-20T15:42:29;282.30;2278.40
70151;DHT22;57517;43.562;19.540;2022-11-20T15:44:55;282.30;2278.40
70151;DHT22;57517;43.562;19.540;2022-11-20T15:47:27;282.20;2278.40
70151;DHT22;57517;43.562;19.540;2022-11-20T15:49:54;282.20;2278.40
70151;DHT22;57517;43.562;19.540;2022-11-20T15:52:19;282.20;2278.40
70151;DHT22;57517;43.562;19.540;2022-11-20T15:54:45;282.20;2278.40
70151;DHT22;57517;43.562;19.540;2022-11-20T15:57:11;282.20;2278.40
70151;DHT22;57517;43.562;19.540;2022-11-20T15:59:38;282.20;2278.40
70151;DHT22;57517;43.562;19.540;2022-11-20T16:02:13;282.20;2278.40
70151;DHT22;57517;43.562;19.540;2022-11-20T16:04:39;282.20;2278.40
70151;DHT22;57517;43.562;19.540;2022-11-20T16:07:05;282.30;2278.40
70151;DHT22;57517;43.562;19.540;2022-11-20T16:09:31;282.30;2278.40
70151;DHT22;57517;43.562;19.540;2022-11-20T16:11:57;282.30;2278.40
70151;DHT22;57517;43.562;19.540;2022-11-20T16:14:26;282.30;2278.40
70151;DHT22;57517;43.562;19.540;2022-11-20T16:17:10;282.30;2278.40
70151;DHT22;57517;43.562;19.540;2022-11-20T16:19:36;282.40;2278.40
70151;DHT22;57517;43.562;19.540;2022-11-20T16:22:02;307.40;2304.00
70151;DHT22;57517;43.562;19.540;2022-11-20T16:24:28;307.30;2304.00